SVMCTNCA

Guest
Details From SVMC - LA CHINITA INTL
To TNCA - REINA BEATRIX INTL
Flight Number -
Tags generated
Created
Modified
Stats Distance 154 nm / 286 km
Max Altitude 0 ft / 0 m
Waypoints 2
Social Downloads 17
Likes 0
Share

Download

Looking for another format? Having issues loading an existing format? Contact us
Advertisement - Login to hide

Notes

Basic altitude profile: - Ascent Rate: 2500ft/min - Ascent Speed: 250kts - Cruise Altitude: 190ft - Cruise Speed: 420kts - Descent Rate: 1500ft/min - Descent Speed: 250kts Options: - Use NATs: no - Use PACOTS: no - Use low airways: no - Use high airways: no

Route

SVMC TNCA

ID Type Via Altitude (ft/m) Position (lat/lon) Dist (leg/tot) Name
O SVMC APT - 0 / 0 10.55821 / -71.72786 - / 0 nm LA CHINITA INTL
O TNCA APT - 0 / 0 12.50139 / -70.01522 154 / 154 nm REINA BEATRIX INTL

Altitude Profile

Advertisement - Login to hide

SVMC

Details ICAO SVMC (MAR)
Name La Chinita Intl
Region Venezuela
Timezone America/Caracas (UTC-4.0)
Stats Elevation 233 ft / 71 m (AMSL)
Location 10.558200° -71.727900°
Runways 2
Magnetic Variation 10.282° W

METAR

SVMC 262003Z AUTO 04008KT NCD 32/19 Q1012

Decode

TAF

TAF SVMC 261600Z 2618/2718 09005KT 9999 FEW013 TX35/2619Z TN24/2707Z TEMPO 2619/2623 09002KT 9000 -VCDZ SCT013 BKN060

Decode

Departure Runways

ID Width Length Bearing (true/mag) Surface Threshold Overrun Markings Lighting
03L 148 ft / 45 m 9,852 ft / 3,003 m 22.68° / 32.96° ASPHALT 0 ft / 0 m 131 ft / 40 m PREC-APP CENTERLINE EDGE THRESHOLD ALSF-I REIL-OMNI
03R 98 ft / 30 m 8,210 ft / 2,502 m 22.67° / 32.95° ASPHALT 0 ft / 0 m 0 ft / 0 m PREC-APP
21L 98 ft / 30 m 8,210 ft / 2,502 m 202.67° / 212.95° ASPHALT 0 ft / 0 m 0 ft / 0 m PREC-APP
21R 148 ft / 45 m 9,852 ft / 3,003 m 202.68° / 212.96° ASPHALT 0 ft / 0 m 984 ft / 300 m PREC-APP CENTERLINE EDGE THRESHOLD REIL-OMNI

TNCA

Details ICAO TNCA (AUA)
Name Queen Beatrix Intl
Region Caribbean Netherlands, Aruba, Curaçao, Sint Maarten
Timezone America/Aruba (UTC-4.0)
Stats Elevation 60 ft / 18 m (AMSL)
Location 12.501500° -70.015600°
Runways 1
Magnetic Variation 11.388° W

METAR

TNCA 262000Z 07015KT 9999 FEW028 30/22 Q1013 NOSIG

Decode

TAF

TAF TNCA 261800Z 2618/2718 08016KT 9999 SCT025

Decode

Destination Runways

ID Width Length Bearing (true/mag) Surface Threshold Overrun Markings Lighting
11 148 ft / 45 m 9,287 ft / 2,831 m 103.63° / 115.02° ASPHALT 285 ft / 87 m 203 ft / 62 m PREC-APP EDGE THRESHOLD MALSF REIL-OMNI
29 148 ft / 45 m 9,287 ft / 2,831 m 283.64° / 295.03° ASPHALT 92 ft / 28 m 190 ft / 58 m PREC-APP EDGE THRESHOLD REIL-OMNI

Approach Navaids

Runway Type Ident Frequency Range Bearing (true/mag) Slope Elevation
11 LOC-ILS IBE 108.70 MHz 18 nm / 33 km 103.91° / 115.30 ° - 58 ft / 18 m (AMSL)
11 GS IBE 108.70 MHz 10 nm / 19 km 104.17° / 115.55 ° 2.98° 10 ft / 3 m (AMSL)
11 DME IBE 108.70 MHz 18 nm / 33 km - - 58 ft / 18 m (AMSL)

Popular Alternatives